createdAt,value
2023-05-02T00:00:04.296Z,24.11
2023-05-02T00:01:04.354Z,24.08
2023-05-02T00:02:04.353Z,24.12
2023-05-02T00:03:04.319Z,24.07
2023-05-02T00:04:04.309Z,24.08
2023-05-02T00:05:04.237Z,24.08
2023-05-02T00:06:04.285Z,24.09
2023-05-02T00:07:04.245Z,24.09
2023-05-02T00:08:04.235Z,24.08
2023-05-02T00:09:04.232Z,24.08
2023-05-02T00:10:04.227Z,24.09
2023-05-02T00:11:04.231Z,24.08
2023-05-02T00:12:04.285Z,24.08
2023-05-02T00:13:04.180Z,24.07
2023-05-02T00:14:04.176Z,24.08
2023-05-02T00:15:04.209Z,24.07
2023-05-02T00:16:04.182Z,24.07
2023-05-02T00:17:04.208Z,24.07
2023-05-02T00:18:04.238Z,24.07
2023-05-02T00:19:04.196Z,24.09
2023-05-02T00:20:04.150Z,24.07
2023-05-02T00:21:04.206Z,24.04
2023-05-02T00:22:04.164Z,24.05
2023-05-02T00:23:04.162Z,24.04
2023-05-02T00:24:04.112Z,24.04
2023-05-02T00:25:04.147Z,24.07
2023-05-02T00:26:04.117Z,24.05
2023-05-02T00:27:04.130Z,24.05
2023-05-02T00:28:04.145Z,24.07
2023-05-02T00:29:04.158Z,24.04
2023-05-02T00:30:04.176Z,24.07
2023-05-02T00:31:04.209Z,24.08
2023-05-02T00:32:04.217Z,24.08
2023-05-02T00:33:04.312Z,24.05
2023-05-02T00:34:04.269Z,24.07
2023-05-02T00:35:04.274Z,24.05
2023-05-02T00:36:04.289Z,24.04
2023-05-02T00:37:04.307Z,24.05
2023-05-02T00:38:04.330Z,24.05
2023-05-02T00:39:04.340Z,24.04
2023-05-02T00:40:04.372Z,24.08
2023-05-02T00:41:04.393Z,24.07
2023-05-02T00:42:04.402Z,24.05
2023-05-02T00:43:04.430Z,24.07
2023-05-02T00:44:04.483Z,24.04
2023-05-02T00:45:04.488Z,24.07
2023-05-02T00:46:04.568Z,24.07
2023-05-02T00:47:04.512Z,24.05
2023-05-02T00:48:04.575Z,24.05
2023-05-02T00:49:04.562Z,24.07
2023-05-02T00:50:04.599Z,24.05
2023-05-02T00:51:04.623Z,24.02
2023-05-02T00:52:04.634Z,24.07
2023-05-02T00:53:04.656Z,24.04
2023-05-02T00:54:04.668Z,24.07
2023-05-02T00:55:04.691Z,24.05
2023-05-02T00:56:04.730Z,24.05
2023-05-02T00:57:04.754Z,24.05
2023-05-02T00:58:04.767Z,24.05
2023-05-02T00:59:04.794Z,24.04
2023-05-02T01:00:04.821Z,24.04
2023-05-02T01:01:04.847Z,24.04
2023-05-02T01:02:04.962Z,24.04
2023-05-02T01:03:04.985Z,24.04
2023-05-02T01:04:05.055Z,24.02
2023-05-02T01:05:04.913Z,24.05
2023-05-02T01:06:04.948Z,24.02
2023-05-02T01:07:04.963Z,24.02
2023-05-02T01:08:04.972Z,24.04
2023-05-02T01:09:05.019Z,24.05
2023-05-02T01:10:05.049Z,24.04
2023-05-02T01:11:05.028Z,24.01
2023-05-02T01:12:05.037Z,24.02
2023-05-02T01:13:05.075Z,24.02
2023-05-02T01:14:05.102Z,24.02
2023-05-02T01:15:05.139Z,24.01
2023-05-02T01:16:05.165Z,24.04
2023-05-02T01:17:05.145Z,24.02
2023-05-02T01:18:05.205Z,24.02
2023-05-02T01:19:05.200Z,24.02
2023-05-02T01:20:05.206Z,24.01
2023-05-02T01:21:05.277Z,24.02
2023-05-02T01:22:05.246Z,23.99
2023-05-02T01:23:05.317Z,24.04
2023-05-02T01:24:05.307Z,24.01
2023-05-02T01:25:05.336Z,24.01
2023-05-02T01:26:05.415Z,24.02
2023-05-02T01:27:05.370Z,24.01
2023-05-02T01:28:05.402Z,24.01
2023-05-02T01:29:05.437Z,23.98
2023-05-02T01:30:05.441Z,24.02
2023-05-02T01:31:05.497Z,23.99
2023-05-02T01:32:05.570Z,24.01
2023-05-02T01:33:05.625Z,24.01
2023-05-02T01:34:05.560Z,23.99
2023-05-02T01:35:05.572Z,23.98
2023-05-02T01:36:05.641Z,23.99
2023-05-02T01:37:05.622Z,24.01
2023-05-02T01:38:05.645Z,24.01
2023-05-02T01:39:05.714Z,24.01
2023-05-02T01:40:05.708Z,23.99
2023-05-02T01:41:05.733Z,24.01
2023-05-02T01:42:05.766Z,23.99
2023-05-02T01:43:05.797Z,24.01
2023-05-02T01:44:05.853Z,24.01
2023-05-02T01:45:05.855Z,23.97
2023-05-02T01:46:05.904Z,23.99
2023-05-02T01:47:05.945Z,24.01
2023-05-02T01:48:06.026Z,23.99
2023-05-02T01:49:05.971Z,23.98
2023-05-02T01:50:05.999Z,23.99
2023-05-02T01:51:06.056Z,23.98
2023-05-02T01:52:06.060Z,23.99
2023-05-02T01:53:06.094Z,23.98
2023-05-02T01:54:06.133Z,23.99
2023-05-02T01:55:06.158Z,23.99
2023-05-02T01:56:06.237Z,23.99
2023-05-02T01:57:06.259Z,23.99
2023-05-02T01:58:06.251Z,24.01
2023-05-02T01:59:06.274Z,23.99
2023-05-02T02:00:06.304Z,23.98
2023-05-02T02:01:06.403Z,23.98
2023-05-02T02:02:06.396Z,23.99
2023-05-02T02:03:06.411Z,23.98
2023-05-02T02:04:06.474Z,23.99
2023-05-02T02:05:06.433Z,23.97
2023-05-02T02:06:06.535Z,23.98
2023-05-02T02:07:06.489Z,23.98
2023-05-02T02:08:06.516Z,23.99
2023-05-02T02:09:06.682Z,23.98
2023-05-02T02:10:06.587Z,23.98
2023-05-02T02:11:06.629Z,23.98
2023-05-02T02:12:06.718Z,24.01
2023-05-02T02:13:06.656Z,23.99
2023-05-02T02:14:06.726Z,23.97
2023-05-02T02:15:06.751Z,23.97
2023-05-02T02:16:06.876Z,23.98
2023-05-02T02:17:06.843Z,23.99
2023-05-02T02:18:06.879Z,23.98
2023-05-02T02:19:06.897Z,23.98
2023-05-02T02:20:07.007Z,23.97
2023-05-02T02:21:06.957Z,23.98
2023-05-02T02:22:06.981Z,23.95
2023-05-02T02:23:06.949Z,23.97
2023-05-02T02:24:07.014Z,23.98
2023-05-02T02:25:07.111Z,23.97
2023-05-02T02:26:07.091Z,23.99
2023-05-02T02:27:07.089Z,24.01
2023-05-02T02:28:07.286Z,23.92
2023-05-02T02:29:07.196Z,23.99
2023-05-02T02:30:07.226Z,23.97
2023-05-02T02:31:07.300Z,23.95
2023-05-02T02:32:07.756Z,23.98
2023-05-02T02:33:07.343Z,23.95
2023-05-02T02:34:07.403Z,23.97
2023-05-02T02:35:07.422Z,23.97
2023-05-02T02:36:07.435Z,23.99
2023-05-02T02:37:07.491Z,23.98
2023-05-02T02:38:07.519Z,23.98
2023-05-02T02:39:07.542Z,23.98
2023-05-02T02:40:07.550Z,23.98
2023-05-02T02:41:07.568Z,23.97
2023-05-02T02:42:07.624Z,23.98
2023-05-02T02:43:07.665Z,23.94
2023-05-02T02:44:07.683Z,23.97
2023-05-02T02:45:07.716Z,23.98
2023-05-02T02:46:07.797Z,23.97
2023-05-02T02:47:07.727Z,23.97
2023-05-02T02:48:07.820Z,23.95
2023-05-02T02:49:07.827Z,23.95
2023-05-02T02:50:07.854Z,23.97
2023-05-02T02:51:07.871Z,23.97
2023-05-02T02:52:07.927Z,23.95
2023-05-02T02:53:07.944Z,23.97
2023-05-02T02:54:23.071Z,23.98
2023-05-02T02:55:08.951Z,23.98
2023-05-02T02:56:07.942Z,23.94
2023-05-02T02:57:07.933Z,23.95
2023-05-02T02:58:07.946Z,23.97
2023-05-02T02:59:08.257Z,23.97
2023-05-02T03:00:07.918Z,23.94
2023-05-02T03:01:07.943Z,23.95
2023-05-02T03:02:07.996Z,23.97
2023-05-02T03:03:07.987Z,23.97
2023-05-02T03:04:08.052Z,23.97
2023-05-02T03:05:07.924Z,23.95
2023-05-02T03:06:07.979Z,23.97
2023-05-02T03:07:07.988Z,23.95
2023-05-02T03:08:08.134Z,23.97
2023-05-02T03:09:08.087Z,23.95
2023-05-02T03:10:08.160Z,23.94
2023-05-02T03:11:08.154Z,23.97
2023-05-02T03:12:08.209Z,23.94
2023-05-02T03:13:08.260Z,23.95
2023-05-02T03:14:08.312Z,23.95
2023-05-02T03:15:08.340Z,23.94
2023-05-02T03:16:08.436Z,23.97
2023-05-02T03:17:08.529Z,23.92
2023-05-02T03:18:08.461Z,23.98
2023-05-02T03:19:08.638Z,23.95
2023-05-02T03:20:08.539Z,23.94
2023-05-02T03:21:08.584Z,23.95
2023-05-02T03:22:08.632Z,23.94
2023-05-02T03:23:08.685Z,23.94
2023-05-02T03:24:08.756Z,23.94
2023-05-02T03:25:08.767Z,23.95
2023-05-02T03:26:08.834Z,23.94
2023-05-02T03:27:08.879Z,23.92
2023-05-02T03:28:08.896Z,23.95
2023-05-02T03:29:08.918Z,23.95
2023-05-02T03:30:08.970Z,23.94
2023-05-02T03:31:09.092Z,23.97
2023-05-02T03:32:09.109Z,23.94
2023-05-02T03:33:09.296Z,23.95
2023-05-02T03:34:09.139Z,23.95
2023-05-02T03:35:09.195Z,23.95
2023-05-02T03:36:09.235Z,23.92
2023-05-02T03:37:09.294Z,23.92
2023-05-02T03:38:09.314Z,23.92
2023-05-02T03:39:09.388Z,23.92
2023-05-02T03:40:09.411Z,23.92
2023-05-02T03:41:09.455Z,23.94
2023-05-02T03:42:09.489Z,23.94
2023-05-02T03:43:09.530Z,23.89
2023-05-02T03:44:09.572Z,23.92
2023-05-02T03:45:09.606Z,23.89
2023-05-02T03:46:09.661Z,23.94
2023-05-02T03:47:09.790Z,23.95
2023-05-02T03:48:09.821Z,23.92
2023-05-02T03:49:09.775Z,23.92
2023-05-02T03:50:09.847Z,23.97
2023-05-02T03:51:09.955Z,23.91
2023-05-02T03:52:09.906Z,23.94
2023-05-02T03:53:09.956Z,23.92
2023-05-02T03:54:09.993Z,23.94
2023-05-02T03:55:10.032Z,23.91
2023-05-02T03:56:10.092Z,23.94
2023-05-02T03:57:10.121Z,23.95
2023-05-02T03:58:10.195Z,23.91
2023-05-02T03:59:10.257Z,23.91
2023-05-02T04:00:10.235Z,23.92
2023-05-02T04:01:10.257Z,23.91
2023-05-02T04:02:10.327Z,23.91
2023-05-02T04:03:10.370Z,23.92
2023-05-02T04:04:10.452Z,23.92
2023-05-02T04:05:10.456Z,23.91
2023-05-02T04:06:10.488Z,23.92
2023-05-02T04:07:10.524Z,23.92
2023-05-02T04:08:10.544Z,23.94
2023-05-02T04:09:10.574Z,23.91
2023-05-02T04:10:10.611Z,23.94
2023-05-02T04:11:10.665Z,23.95
2023-05-02T04:12:10.689Z,23.94
2023-05-02T04:13:10.718Z,23.94
2023-05-02T04:14:10.795Z,23.92
2023-05-02T04:15:10.802Z,23.92
2023-05-02T04:16:10.880Z,23.91
2023-05-02T04:17:10.939Z,23.91
2023-05-02T04:18:10.970Z,23.92
2023-05-02T04:19:11.000Z,23.92
2023-05-02T04:20:11.014Z,23.92
2023-05-02T04:21:11.079Z,23.92
2023-05-02T04:22:11.080Z,23.94
2023-05-02T04:23:11.115Z,23.92
2023-05-02T04:24:11.157Z,23.92
2023-05-02T04:25:11.219Z,23.92
2023-05-02T04:26:11.239Z,23.92
2023-05-02T04:27:13.108Z,23.92
2023-05-02T04:28:11.289Z,23.91
2023-05-02T04:29:11.269Z,23.91
2023-05-02T04:30:11.278Z,23.89
2023-05-02T04:31:11.284Z,23.89
2023-05-02T04:32:11.275Z,23.89
2023-05-02T04:33:11.283Z,23.91
2023-05-02T04:34:11.241Z,23.89
2023-05-02T04:35:11.219Z,23.91
2023-05-02T04:36:11.764Z,23.91
2023-05-02T04:37:11.213Z,23.91
2023-05-02T04:38:11.213Z,23.91
2023-05-02T04:39:11.212Z,23.89
2023-05-02T04:40:11.198Z,23.89
2023-05-02T04:41:11.193Z,23.91
2023-05-02T04:42:11.213Z,23.89
2023-05-02T04:43:11.154Z,23.91
2023-05-02T04:44:11.171Z,23.92
2023-05-02T04:45:11.160Z,23.91
2023-05-02T04:46:11.171Z,23.89
2023-05-02T04:47:11.147Z,23.91
2023-05-02T04:48:11.135Z,23.92
2023-05-02T04:49:11.117Z,23.92
2023-05-02T04:50:11.149Z,23.92
2023-05-02T04:51:11.106Z,23.92
2023-05-02T04:52:11.106Z,23.94
2023-05-02T04:53:11.100Z,23.92
2023-05-02T04:54:11.109Z,23.92
2023-05-02T04:55:11.077Z,23.92
2023-05-02T04:56:11.156Z,23.91
2023-05-02T04:57:11.111Z,23.92
2023-05-02T04:58:11.057Z,23.95
2023-05-02T04:59:11.061Z,23.92
2023-05-02T05:00:11.060Z,23.92
2023-05-02T05:01:11.092Z,23.92
2023-05-02T05:02:11.136Z,23.94
2023-05-02T05:03:11.121Z,23.91
2023-05-02T05:04:11.197Z,23.91
2023-05-02T05:05:11.026Z,23.91
2023-05-02T05:06:11.037Z,23.91
2023-05-02T05:07:10.994Z,23.92
2023-05-02T05:08:10.996Z,23.94
2023-05-02T05:09:11.002Z,23.94
2023-05-02T05:10:10.995Z,23.92
2023-05-02T05:11:10.974Z,23.94
2023-05-02T05:12:11.020Z,23.92
2023-05-02T05:13:11.039Z,23.92
2023-05-02T05:14:11.134Z,23.89
2023-05-02T05:15:11.127Z,23.94
2023-05-02T05:16:11.199Z,23.91
2023-05-02T05:17:11.205Z,23.92
2023-05-02T05:18:11.316Z,23.91
2023-05-02T05:19:11.260Z,23.92
2023-05-02T05:20:11.345Z,23.92
2023-05-02T05:21:11.350Z,23.94
2023-05-02T05:22:11.484Z,23.94
2023-05-02T05:23:11.397Z,23.95
2023-05-02T05:24:11.449Z,23.94
2023-05-02T05:25:11.473Z,23.95
2023-05-02T05:26:11.485Z,23.94
2023-05-02T05:27:11.812Z,23.92
2023-05-02T05:28:11.598Z,23.92
2023-05-02T05:29:11.614Z,23.95
2023-05-02T05:30:11.805Z,23.94
2023-05-02T05:31:12.077Z,23.95
2023-05-02T05:32:11.884Z,23.97
2023-05-02T05:33:11.791Z,23.97
2023-05-02T05:34:11.751Z,23.98
2023-05-02T05:35:12.275Z,23.99
2023-05-02T05:36:11.783Z,24.04
2023-05-02T05:37:12.306Z,24.09
2023-05-02T05:38:11.840Z,24.05
2023-05-02T05:39:11.867Z,24.07
2023-05-02T05:40:11.855Z,24.05
2023-05-02T05:41:12.794Z,24.07
2023-05-02T05:42:11.885Z,24.01
2023-05-02T05:43:11.924Z,24.02
2023-05-02T05:44:11.870Z,24.09
2023-05-02T05:45:11.954Z,23.88
2023-05-02T05:46:11.885Z,23.99
2023-05-02T05:47:11.916Z,24.07
2023-05-02T05:48:12.002Z,24.01
2023-05-02T05:49:11.979Z,24.11
2023-05-02T05:50:12.312Z,24.09
2023-05-02T05:51:11.893Z,24.12
2023-05-02T05:52:11.894Z,24.09
2023-05-02T05:53:11.948Z,24.12
2023-05-02T05:54:12.002Z,24.15
2023-05-02T05:55:12.296Z,24.18
2023-05-02T05:56:12.798Z,24.22
2023-05-02T05:57:12.296Z,24.23
2023-05-02T05:58:12.100Z,24.29
2023-05-02T05:59:12.127Z,24.35
2023-05-02T06:00:12.235Z,24.36
2023-05-02T06:01:12.253Z,24.38
2023-05-02T06:02:12.365Z,24.48
2023-05-02T06:03:12.489Z,24.49
2023-05-02T06:04:12.494Z,24.55
2023-05-02T06:05:12.631Z,24.53
2023-05-02T06:06:12.661Z,24.60
2023-05-02T06:07:12.645Z,24.64
2023-05-02T06:08:12.613Z,24.64
2023-05-02T06:09:12.685Z,24.67
2023-05-02T06:10:12.784Z,24.67
2023-05-02T06:11:12.918Z,24.71
2023-05-02T06:12:12.803Z,24.70
2023-05-02T06:13:12.822Z,24.74
2023-05-02T06:14:12.872Z,24.69
2023-05-02T06:15:12.960Z,24.66
2023-05-02T06:16:12.962Z,24.64
2023-05-02T06:17:13.033Z,24.70
2023-05-02T06:18:13.054Z,24.77
2023-05-02T06:19:13.075Z,24.74
2023-05-02T06:20:13.084Z,24.80
2023-05-02T06:21:13.107Z,24.73
2023-05-02T06:22:13.149Z,24.77
2023-05-02T06:23:13.178Z,24.79
2023-05-02T06:24:13.250Z,24.80
2023-05-02T06:25:13.253Z,24.76
2023-05-02T06:26:13.309Z,24.73
2023-05-02T06:27:13.313Z,24.74
2023-05-02T06:28:13.388Z,24.76
2023-05-02T06:29:13.404Z,24.71
2023-05-02T06:30:13.432Z,24.74
2023-05-02T06:31:13.483Z,24.67
2023-05-02T06:32:13.490Z,24.73
2023-05-02T06:33:13.566Z,24.73
2023-05-02T06:34:13.521Z,24.73
2023-05-02T06:35:13.626Z,24.74
2023-05-02T06:36:13.604Z,24.73
2023-05-02T06:37:13.923Z,24.74
2023-05-02T06:38:13.819Z,24.71
2023-05-02T06:39:13.716Z,24.70
2023-05-02T06:40:13.846Z,24.76
2023-05-02T06:41:14.500Z,24.74
2023-05-02T06:42:13.829Z,24.83
2023-05-02T06:43:14.309Z,24.83
2023-05-02T06:44:13.883Z,24.90
2023-05-02T06:45:13.918Z,24.87
2023-05-02T06:46:14.052Z,24.94
2023-05-02T06:47:14.083Z,24.95
2023-05-02T06:48:14.079Z,25.00
2023-05-02T06:49:14.026Z,25.06
2023-05-02T06:50:14.103Z,25.06
2023-05-02T06:51:14.130Z,25.10
2023-05-02T06:52:14.125Z,25.17
2023-05-02T06:53:14.210Z,25.25
2023-05-02T06:54:14.199Z,25.28
2023-05-02T06:55:14.343Z,25.32
2023-05-02T06:56:14.226Z,25.37
2023-05-02T06:57:14.242Z,25.38
2023-05-02T06:58:14.337Z,25.38
2023-05-02T06:59:14.300Z,25.37
2023-05-02T07:00:14.361Z,25.45
2023-05-02T07:01:14.343Z,25.44
2023-05-02T07:02:14.328Z,25.42
2023-05-02T07:03:14.374Z,25.49
2023-05-02T07:04:14.376Z,25.48
2023-05-02T07:05:14.379Z,25.53
2023-05-02T07:06:14.376Z,25.58
2023-05-02T07:07:14.440Z,25.59
2023-05-02T07:08:14.438Z,25.68
2023-05-02T07:09:14.500Z,25.65
2023-05-02T07:10:14.368Z,25.68
2023-05-02T07:11:14.386Z,25.68
2023-05-02T07:12:14.386Z,25.69
2023-05-02T07:13:14.475Z,25.64
2023-05-02T07:14:14.386Z,25.75
2023-05-02T07:15:14.396Z,25.73
2023-05-02T07:16:14.490Z,25.76
2023-05-02T07:17:14.393Z,25.79
2023-05-02T07:18:14.463Z,25.79
2023-05-02T07:19:14.411Z,25.85
2023-05-02T07:20:14.399Z,25.78
2023-05-02T07:21:14.439Z,25.76
2023-05-02T07:22:14.454Z,25.78
2023-05-02T07:23:14.443Z,25.75
2023-05-02T07:24:14.408Z,25.76
2023-05-02T07:25:14.419Z,25.79
2023-05-02T07:26:14.423Z,25.78
2023-05-02T07:27:14.406Z,25.76
2023-05-02T07:28:14.396Z,25.76
2023-05-02T07:29:14.449Z,25.76
2023-05-02T07:30:14.437Z,25.75
2023-05-02T07:31:14.432Z,25.76
2023-05-02T07:32:14.515Z,25.78
2023-05-02T07:33:14.475Z,25.76
2023-05-02T07:34:14.413Z,25.72
2023-05-02T07:35:14.833Z,25.79
2023-05-02T07:36:14.415Z,25.76
2023-05-02T07:37:14.436Z,25.80
2023-05-02T07:38:14.429Z,25.66
2023-05-02T07:39:14.412Z,25.73
2023-05-02T07:40:14.842Z,25.73
2023-05-02T07:41:14.430Z,25.75
2023-05-02T07:42:14.473Z,25.78
2023-05-02T07:43:14.440Z,25.76
2023-05-02T07:44:14.427Z,25.82
2023-05-02T07:45:14.500Z,25.89
2023-05-02T07:46:14.448Z,25.92
2023-05-02T07:47:14.416Z,25.92
2023-05-02T07:48:14.494Z,25.86
2023-05-02T07:49:14.416Z,25.89
2023-05-02T07:50:14.423Z,25.90
2023-05-02T07:51:14.399Z,25.89
2023-05-02T07:52:14.404Z,25.89
2023-05-02T07:53:14.416Z,25.93
2023-05-02T07:54:14.402Z,25.92
2023-05-02T07:55:15.368Z,25.93
2023-05-02T07:56:14.449Z,25.96
2023-05-02T07:57:14.550Z,25.95
2023-05-02T07:58:14.621Z,26.01
2023-05-02T07:59:14.608Z,26.03
2023-05-02T08:00:14.678Z,26.04
2023-05-02T08:01:14.728Z,26.01
2023-05-02T08:02:14.842Z,26.04
2023-05-02T08:03:15.092Z,26.01
2023-05-02T08:04:15.225Z,26.04
2023-05-02T08:05:15.084Z,26.00
2023-05-02T08:06:15.099Z,26.01
2023-05-02T08:07:15.107Z,25.99
2023-05-02T08:08:15.135Z,25.97
2023-05-02T08:09:15.154Z,25.95
2023-05-02T08:10:15.189Z,25.96
2023-05-02T08:11:15.369Z,25.92
2023-05-02T08:12:15.265Z,25.92
2023-05-02T08:13:15.276Z,25.89
2023-05-02T08:14:15.255Z,25.85
2023-05-02T08:15:15.380Z,25.83
2023-05-02T08:16:15.363Z,25.85
2023-05-02T08:17:15.255Z,25.83
2023-05-02T08:18:15.991Z,25.85
2023-05-02T08:19:15.269Z,25.83
2023-05-02T08:20:15.390Z,25.80
2023-05-02T08:21:15.234Z,25.80
2023-05-02T08:22:15.239Z,25.80
2023-05-02T08:23:15.218Z,25.79
2023-05-02T08:24:15.259Z,25.78
2023-05-02T08:25:15.300Z,25.76
2023-05-02T08:26:15.255Z,25.75
2023-05-02T08:27:15.217Z,25.70
2023-05-02T08:28:15.345Z,25.70
2023-05-02T08:29:15.278Z,25.68
2023-05-02T08:30:15.299Z,25.62
2023-05-02T08:31:15.311Z,25.59
2023-05-02T08:32:15.393Z,25.55
2023-05-02T08:33:15.344Z,25.53
2023-05-02T08:34:15.341Z,25.51
2023-05-02T08:35:15.261Z,25.49
2023-05-02T08:36:15.357Z,25.46
2023-05-02T08:37:15.262Z,25.44
2023-05-02T08:38:15.862Z,25.45
2023-05-02T08:39:15.327Z,25.35
2023-05-02T08:40:15.416Z,25.41
2023-05-02T08:41:15.359Z,25.42
2023-05-02T08:42:15.371Z,25.46
2023-05-02T08:43:15.433Z,25.48
2023-05-02T08:44:15.392Z,25.52
2023-05-02T08:45:16.683Z,25.53
2023-05-02T08:46:15.500Z,25.58
2023-05-02T08:47:15.471Z,25.55
2023-05-02T08:48:15.425Z,25.55
2023-05-02T08:49:15.386Z,25.52
2023-05-02T08:50:15.443Z,25.53
2023-05-02T08:51:15.403Z,25.49
2023-05-02T08:52:15.478Z,25.51
2023-05-02T08:53:15.438Z,25.49
2023-05-02T08:54:15.461Z,25.49
2023-05-02T08:55:15.464Z,25.45
2023-05-02T08:56:15.468Z,25.46
2023-05-02T08:57:15.492Z,25.45
2023-05-02T08:58:16.304Z,25.45
2023-05-02T08:59:15.566Z,25.45
2023-05-02T09:00:15.570Z,25.44
2023-05-02T09:01:15.883Z,25.41
2023-05-02T09:02:16.279Z,25.42
2023-05-02T09:03:15.648Z,25.45
2023-05-02T09:04:15.673Z,25.44
2023-05-02T09:05:15.704Z,25.39
2023-05-02T09:06:15.727Z,25.41
2023-05-02T09:07:15.751Z,25.39
2023-05-02T09:08:15.892Z,25.38
2023-05-02T09:09:17.204Z,25.39
2023-05-02T09:10:15.929Z,25.39
2023-05-02T09:11:15.766Z,25.35
2023-05-02T09:12:15.812Z,25.34
2023-05-02T09:13:15.765Z,25.35
2023-05-02T09:14:15.750Z,25.37
2023-05-02T09:15:18.178Z,25.31
2023-05-02T09:16:15.767Z,25.31
2023-05-02T09:17:15.731Z,25.31
2023-05-02T09:18:15.812Z,25.32
2023-05-02T09:19:15.713Z,25.34
2023-05-02T09:20:15.734Z,25.31
2023-05-02T09:21:18.084Z,25.29
2023-05-02T09:22:15.681Z,25.31
2023-05-02T09:23:15.691Z,25.29
2023-05-02T09:24:15.722Z,25.29
2023-05-02T09:25:15.698Z,25.31
2023-05-02T09:26:15.687Z,25.31
2023-05-02T09:27:15.671Z,25.29
2023-05-02T09:28:15.652Z,25.32
2023-05-02T09:29:15.637Z,25.28
2023-05-02T09:30:15.632Z,25.28
2023-05-02T09:31:19.038Z,25.29
2023-05-02T09:32:16.712Z,25.20
2023-05-02T09:33:17.475Z,25.17
2023-05-02T09:34:15.597Z,25.15
2023-05-02T09:35:15.627Z,25.15
2023-05-02T09:36:15.876Z,25.20
2023-05-02T09:37:15.603Z,25.11
2023-05-02T09:38:15.894Z,25.21
2023-05-02T09:39:15.653Z,25.21
2023-05-02T09:40:15.570Z,25.15
2023-05-02T09:41:15.634Z,25.14
2023-05-02T09:42:15.608Z,25.08
2023-05-02T09:43:15.549Z,25.01
2023-05-02T09:44:15.543Z,25.04
2023-05-02T09:45:15.538Z,24.97
2023-05-02T09:46:16.050Z,24.97
2023-05-02T09:47:15.564Z,24.98
2023-05-02T09:48:15.537Z,25.00
2023-05-02T09:49:15.500Z,25.01
2023-05-02T09:50:15.572Z,25.03
2023-05-02T09:51:15.652Z,25.11
2023-05-02T09:52:15.705Z,25.13
2023-05-02T09:53:15.641Z,25.15
2023-05-02T09:54:15.730Z,25.17
2023-05-02T09:55:15.683Z,25.25
2023-05-02T09:56:15.929Z,25.28
2023-05-02T09:57:15.760Z,25.32
2023-05-02T09:58:15.972Z,25.37
2023-05-02T09:59:15.979Z,25.41
2023-05-02T10:00:15.773Z,25.44
2023-05-02T10:01:15.936Z,25.45
2023-05-02T10:02:15.800Z,25.52
2023-05-02T10:03:16.292Z,25.53
2023-05-02T10:04:15.938Z,25.52
2023-05-02T10:05:15.833Z,25.55
2023-05-02T10:06:15.920Z,25.58
2023-05-02T10:07:15.923Z,25.61
2023-05-02T10:08:15.838Z,25.62
2023-05-02T10:09:19.647Z,25.64
2023-05-02T10:10:16.984Z,25.66
2023-05-02T10:11:15.840Z,25.66
2023-05-02T10:12:15.848Z,25.72
2023-05-02T10:13:15.826Z,25.72
2023-05-02T10:14:15.843Z,25.73
2023-05-02T10:15:15.803Z,25.76
2023-05-02T10:16:15.906Z,25.73
2023-05-02T10:17:15.857Z,25.75
2023-05-02T10:18:15.850Z,25.70
2023-05-02T10:19:15.821Z,25.68
2023-05-02T10:20:15.837Z,25.68
2023-05-02T10:21:15.789Z,25.59
2023-05-02T10:22:15.829Z,25.55
2023-05-02T10:23:15.740Z,25.48
2023-05-02T10:24:15.723Z,25.45
2023-05-02T10:25:15.734Z,25.46
2023-05-02T10:26:15.726Z,25.45
2023-05-02T10:27:15.738Z,25.45
2023-05-02T10:28:15.899Z,25.45
2023-05-02T10:29:15.708Z,25.44
2023-05-02T10:30:15.703Z,25.45
2023-05-02T10:31:15.749Z,25.48
2023-05-02T10:32:15.694Z,25.53
2023-05-02T10:33:15.732Z,25.55
2023-05-02T10:34:15.739Z,25.53
2023-05-02T10:35:15.797Z,25.51
2023-05-02T10:36:15.774Z,25.48
2023-05-02T10:37:15.760Z,25.48
2023-05-02T10:38:15.771Z,25.42
2023-05-02T10:39:15.782Z,25.41
2023-05-02T10:40:15.886Z,25.41
2023-05-02T10:41:15.833Z,25.41
2023-05-02T10:42:15.861Z,25.37
2023-05-02T10:43:15.896Z,25.31
2023-05-02T10:44:15.968Z,25.29
2023-05-02T10:45:15.980Z,25.31
2023-05-02T10:46:16.025Z,25.28
2023-05-02T10:47:16.037Z,25.24
2023-05-02T10:48:16.060Z,25.22
2023-05-02T10:49:16.094Z,25.22
2023-05-02T10:50:16.173Z,25.20
2023-05-02T10:51:16.157Z,25.20
2023-05-02T10:52:16.230Z,25.17
2023-05-02T10:53:16.345Z,25.15
2023-05-02T10:54:16.350Z,25.14
2023-05-02T10:55:16.343Z,25.15
2023-05-02T10:56:16.373Z,25.10
2023-05-02T10:57:16.437Z,25.11
2023-05-02T10:58:16.460Z,25.10
2023-05-02T10:59:16.512Z,25.07
2023-05-02T11:00:16.551Z,25.07
2023-05-02T11:01:16.661Z,25.04
2023-05-02T11:02:16.699Z,25.04
2023-05-02T11:03:16.818Z,25.03
2023-05-02T11:04:16.835Z,25.01
2023-05-02T11:05:16.836Z,25.00
2023-05-02T11:06:16.955Z,25.00
2023-05-02T11:07:16.972Z,24.95
2023-05-02T11:08:19.364Z,24.97
2023-05-02T11:09:16.979Z,24.97
2023-05-02T11:10:16.979Z,24.95
2023-05-02T11:11:16.951Z,24.97
2023-05-02T11:12:16.954Z,24.95
2023-05-02T11:13:16.933Z,24.95
2023-05-02T11:14:17.995Z,24.94
2023-05-02T11:15:16.940Z,24.94
2023-05-02T11:16:16.977Z,24.91
2023-05-02T11:17:16.902Z,24.90
2023-05-02T11:18:16.956Z,24.90
2023-05-02T11:19:16.975Z,24.86
2023-05-02T11:20:16.886Z,24.93
2023-05-02T11:21:16.903Z,24.93
2023-05-02T11:22:16.876Z,24.93
2023-05-02T11:23:16.923Z,24.93
2023-05-02T11:24:16.902Z,24.97
2023-05-02T11:25:16.891Z,24.98
2023-05-02T11:26:16.906Z,24.94
2023-05-02T11:27:16.857Z,24.97
2023-05-02T11:28:16.910Z,24.97
2023-05-02T11:29:16.964Z,24.93
2023-05-02T11:30:17.008Z,24.94
2023-05-02T11:31:17.086Z,24.93
2023-05-02T11:32:17.177Z,24.94
2023-05-02T11:33:17.428Z,24.90
2023-05-02T11:34:17.264Z,24.93
2023-05-02T11:35:17.332Z,24.93
2023-05-02T11:36:17.386Z,24.90
2023-05-02T11:37:17.418Z,24.90
2023-05-02T11:38:17.518Z,24.90
2023-05-02T11:39:17.533Z,24.91
2023-05-02T11:40:17.616Z,24.89
2023-05-02T11:41:17.671Z,24.89
2023-05-02T11:42:17.716Z,24.87
2023-05-02T11:43:17.833Z,24.86
2023-05-02T11:44:17.818Z,24.89
2023-05-02T11:45:17.899Z,24.86
2023-05-02T11:46:18.498Z,24.86
2023-05-02T11:47:17.973Z,24.86
2023-05-02T11:48:18.468Z,24.87
2023-05-02T11:49:18.110Z,24.87
2023-05-02T11:50:18.181Z,24.87
2023-05-02T11:51:18.234Z,24.87
2023-05-02T11:52:18.309Z,24.86
2023-05-02T11:53:18.332Z,24.89
2023-05-02T11:54:18.373Z,24.86
2023-05-02T11:55:18.452Z,24.87
2023-05-02T11:56:18.526Z,24.84
2023-05-02T11:57:18.588Z,24.86
2023-05-02T11:58:18.721Z,24.86
2023-05-02T11:59:18.688Z,24.87
2023-05-02T12:00:18.716Z,24.84
2023-05-02T12:01:18.746Z,24.86
2023-05-02T12:02:18.829Z,24.87
2023-05-02T12:03:19.061Z,24.89
2023-05-02T12:04:18.892Z,24.87
2023-05-02T12:05:18.962Z,24.90
2023-05-02T12:06:19.687Z,24.87
2023-05-02T12:07:19.092Z,24.86
2023-05-02T12:08:19.556Z,24.87
2023-05-02T12:09:19.275Z,24.87
2023-05-02T12:10:19.211Z,24.87
2023-05-02T12:11:19.238Z,24.89
2023-05-02T12:12:19.311Z,24.86
2023-05-02T12:13:19.412Z,24.87
2023-05-02T12:14:19.428Z,24.86
2023-05-02T12:15:19.543Z,24.87
2023-05-02T12:16:19.753Z,24.86
2023-05-02T12:17:19.589Z,24.86
2023-05-02T12:18:21.498Z,24.86
2023-05-02T12:19:19.755Z,24.86
2023-05-02T12:20:19.827Z,24.83
2023-05-02T12:21:19.860Z,24.84
2023-05-02T12:22:19.897Z,24.84
2023-05-02T12:23:20.005Z,24.81
2023-05-02T12:24:20.128Z,24.81
2023-05-02T12:25:20.125Z,24.84
2023-05-02T12:26:20.160Z,24.87
2023-05-02T12:27:20.192Z,24.94
2023-05-02T12:28:20.319Z,25.01
2023-05-02T12:29:20.278Z,25.07
2023-05-02T12:30:20.346Z,25.17
2023-05-02T12:31:20.425Z,25.27
2023-05-02T12:32:20.416Z,25.28
2023-05-02T12:33:20.434Z,25.34
2023-05-02T12:34:20.446Z,25.38
2023-05-02T12:35:20.485Z,25.42
2023-05-02T12:36:21.459Z,25.48
2023-05-02T12:37:20.482Z,25.55
2023-05-02T12:38:20.988Z,25.58
2023-05-02T12:39:20.520Z,25.61
2023-05-02T12:40:20.490Z,25.64
2023-05-02T12:41:20.565Z,25.69
2023-05-02T12:42:20.471Z,25.76
2023-05-02T12:43:20.473Z,25.82
2023-05-02T12:44:20.493Z,25.85
2023-05-02T12:45:20.508Z,25.80
2023-05-02T12:46:20.611Z,25.82
2023-05-02T12:47:20.631Z,25.92
2023-05-02T12:48:20.503Z,25.92
2023-05-02T12:49:20.502Z,25.95
2023-05-02T12:50:20.575Z,26.03
2023-05-02T12:51:20.573Z,26.00
2023-05-02T12:52:20.643Z,26.04